createdAt,value
2019-05-23T00:00:01.156Z,58.17
2019-05-23T00:01:01.271Z,58.59
2019-05-23T00:02:01.142Z,58.97
2019-05-23T00:03:01.125Z,58.80
2019-05-23T00:04:01.112Z,59.36
2019-05-23T00:05:01.109Z,59.49
2019-05-23T00:06:01.091Z,58.97
2019-05-23T00:07:01.083Z,59.06
2019-05-23T00:08:01.069Z,59.89
2019-05-23T00:09:01.059Z,58.97
2019-05-23T00:10:01.048Z,58.97
2019-05-23T00:11:01.039Z,58.97
2019-05-23T00:12:01.031Z,59.47
2019-05-23T00:13:01.020Z,59.30
2019-05-23T00:14:01.005Z,59.39
2019-05-23T00:15:01.082Z,59.36
2019-05-23T00:16:00.989Z,59.56
2019-05-23T00:17:00.971Z,59.36
2019-05-23T00:18:00.962Z,59.19
2019-05-23T00:19:00.950Z,59.36
2019-05-23T00:20:00.942Z,59.09
2019-05-23T00:21:00.927Z,59.09
2019-05-23T00:22:00.917Z,59.86
2019-05-23T00:23:00.909Z,60.19
2019-05-23T00:24:00.896Z,59.96
2019-05-23T00:25:00.883Z,60.06
2019-05-23T00:26:00.886Z,60.26
2019-05-23T00:27:00.866Z,60.46
2019-05-23T00:28:00.851Z,60.59
2019-05-23T00:29:09.846Z,60.46
2019-05-23T00:30:01.838Z,60.56
2019-05-23T00:31:00.821Z,61.39
2019-05-23T00:32:00.806Z,60.99
2019-05-23T00:33:00.795Z,61.06
2019-05-23T00:34:00.786Z,61.16
2019-05-23T00:35:00.775Z,61.99
2019-05-23T00:36:00.765Z,61.99
2019-05-23T00:37:00.754Z,61.85
2019-05-23T00:38:00.745Z,62.75
2019-05-23T00:39:00.734Z,62.38
2019-05-23T00:40:00.725Z,62.48
2019-05-23T00:41:00.719Z,62.78
2019-05-23T00:42:00.703Z,62.78
2019-05-23T00:43:00.695Z,62.59
2019-05-23T00:44:00.681Z,62.75
2019-05-23T00:45:00.669Z,62.95
2019-05-23T00:46:00.657Z,62.45
2019-05-23T00:47:00.655Z,62.75
2019-05-23T00:48:00.634Z,62.85
2019-05-23T00:49:00.637Z,63.05
2019-05-23T00:50:00.611Z,62.88
2019-05-23T00:51:04.577Z,62.85
2019-05-23T00:52:00.590Z,63.28
2019-05-23T00:53:00.580Z,63.05
2019-05-23T00:54:00.571Z,63.15
2019-05-23T00:55:00.556Z,62.68
2019-05-23T00:56:00.550Z,62.85
2019-05-23T00:57:00.534Z,62.85
2019-05-23T00:58:00.529Z,63.45
2019-05-23T00:59:00.518Z,62.48
2019-05-23T01:00:00.504Z,62.68
2019-05-23T01:01:00.508Z,62.98
2019-05-23T01:02:00.482Z,63.08
2019-05-23T01:03:00.471Z,62.55
2019-05-23T01:04:00.477Z,63.28
2019-05-23T01:05:00.462Z,62.68
2019-05-23T01:06:00.438Z,62.78
2019-05-23T01:07:00.426Z,62.65
2019-05-23T01:08:00.414Z,62.85
2019-05-23T01:09:00.404Z,62.88
2019-05-23T01:10:00.397Z,63.08
2019-05-23T01:11:00.384Z,63.28
2019-05-23T01:12:00.373Z,63.08
2019-05-23T01:13:00.361Z,62.75
2019-05-23T01:14:00.350Z,62.95
2019-05-23T01:15:00.341Z,62.68
2019-05-23T01:16:00.379Z,62.85
2019-05-23T01:17:00.332Z,63.38
2019-05-23T01:18:00.304Z,63.08
2019-05-23T01:19:00.294Z,63.88
2019-05-23T01:20:00.283Z,63.48
2019-05-23T01:21:00.273Z,63.45
2019-05-23T01:22:00.266Z,63.68
2019-05-23T01:23:00.250Z,63.68
2019-05-23T01:24:00.246Z,63.35
2019-05-23T01:25:00.237Z,62.95
2019-05-23T01:26:00.219Z,63.45
2019-05-23T01:27:00.212Z,63.28
2019-05-23T01:28:00.197Z,63.28
2019-05-23T01:29:00.196Z,63.55
2019-05-23T01:30:00.185Z,63.28
2019-05-23T01:31:00.164Z,63.48
2019-05-23T01:32:00.151Z,63.78
2019-05-23T01:33:00.143Z,63.48
2019-05-23T01:34:00.141Z,63.38
2019-05-23T01:35:00.125Z,63.35
2019-05-23T01:36:00.111Z,63.78
2019-05-23T01:37:00.103Z,63.45
2019-05-23T01:38:04.066Z,63.65
2019-05-23T01:39:00.078Z,63.98
2019-05-23T01:40:00.064Z,63.68
2019-05-23T01:41:00.070Z,63.48
2019-05-23T01:42:00.047Z,63.65
2019-05-23T01:43:00.033Z,64.78
2019-05-23T01:44:00.022Z,63.68
2019-05-23T01:45:00.011Z,63.78
2019-05-23T01:46:00.000Z,63.58
2019-05-23T01:46:59.993Z,63.78
2019-05-23T01:47:59.983Z,63.98
2019-05-23T01:48:59.966Z,63.58
2019-05-23T01:49:59.954Z,63.48
2019-05-23T01:50:59.943Z,63.98
2019-05-23T01:51:59.932Z,63.88
2019-05-23T01:52:59.924Z,63.88
2019-05-23T01:54:00.217Z,63.88
2019-05-23T01:54:59.902Z,63.35
2019-05-23T01:55:59.890Z,63.58
2019-05-23T01:56:59.876Z,63.75
2019-05-23T01:57:59.868Z,63.78
2019-05-23T01:58:59.855Z,63.48
2019-05-23T02:00:09.948Z,63.68
2019-05-23T02:01:00.832Z,64.28
2019-05-23T02:01:59.827Z,63.38
2019-05-23T02:02:59.820Z,63.88
2019-05-23T02:03:59.800Z,63.78
2019-05-23T02:04:59.799Z,64.58
2019-05-23T02:05:59.806Z,65.08
2019-05-23T02:06:59.767Z,63.88
2019-05-23T02:07:59.757Z,64.18
2019-05-23T02:08:59.746Z,63.65
2019-05-23T02:09:59.736Z,64.07
2019-05-23T02:10:59.747Z,64.18
2019-05-23T02:11:59.712Z,63.88
2019-05-23T02:12:59.706Z,63.98
2019-05-23T02:13:59.694Z,64.37
2019-05-23T02:14:59.682Z,63.98
2019-05-23T02:15:59.669Z,64.18
2019-05-23T02:16:59.660Z,63.88
2019-05-23T02:17:59.648Z,64.78
2019-05-23T02:18:59.641Z,63.85
2019-05-23T02:19:59.624Z,65.57
2019-05-23T02:20:59.615Z,65.27
2019-05-23T02:21:59.609Z,65.57
2019-05-23T02:22:59.594Z,65.67
2019-05-23T02:23:59.583Z,65.37
2019-05-23T02:24:59.571Z,65.17
2019-05-23T02:25:59.563Z,66.07
2019-05-23T02:26:59.549Z,65.67
2019-05-23T02:27:59.543Z,66.27
2019-05-23T02:28:59.527Z,65.08
2019-05-23T02:29:59.517Z,65.57
2019-05-23T02:30:59.507Z,65.27
2019-05-23T02:31:59.496Z,65.17
2019-05-23T02:32:59.484Z,65.47
2019-05-23T02:33:59.477Z,66.17
2019-05-23T02:34:59.464Z,65.08
2019-05-23T02:35:59.457Z,64.97
2019-05-23T02:36:59.441Z,65.47
2019-05-23T02:37:59.431Z,65.47
2019-05-23T02:38:59.427Z,65.47
2019-05-23T02:39:59.411Z,65.77
2019-05-23T02:40:59.403Z,65.67
2019-05-23T02:41:59.387Z,65.08
2019-05-23T02:42:59.375Z,65.97
2019-05-23T02:43:59.367Z,66.07
2019-05-23T02:44:59.360Z,65.87
2019-05-23T02:45:59.344Z,67.07
2019-05-23T02:46:59.336Z,66.17
2019-05-23T02:47:59.322Z,66.17
2019-05-23T02:48:59.310Z,66.07
2019-05-23T02:49:59.300Z,66.67
2019-05-23T02:50:59.290Z,66.64
2019-05-23T02:51:59.281Z,65.87
2019-05-23T02:52:59.267Z,66.07
2019-05-23T02:53:59.398Z,66.67
2019-05-23T02:54:59.245Z,66.77
2019-05-23T02:55:59.235Z,66.97
2019-05-23T02:56:59.225Z,67.17
2019-05-23T02:57:59.211Z,67.66
2019-05-23T02:58:59.201Z,67.47
2019-05-23T02:59:59.190Z,67.57
2019-05-23T03:00:59.182Z,67.57
2019-05-23T03:01:59.171Z,67.47
2019-05-23T03:02:59.159Z,67.47
2019-05-23T03:03:59.155Z,67.57
2019-05-23T03:04:59.161Z,67.47
2019-05-23T03:05:59.123Z,67.66
2019-05-23T03:06:59.114Z,67.57
2019-05-23T03:07:59.103Z,67.57
2019-05-23T03:08:59.092Z,67.17
2019-05-23T03:09:59.085Z,67.77
2019-05-23T03:10:59.069Z,67.47
2019-05-23T03:11:59.060Z,67.66
2019-05-23T03:12:59.048Z,67.66
2019-05-23T03:13:59.043Z,67.36
2019-05-23T03:14:59.034Z,67.47
2019-05-23T03:15:59.018Z,67.57
2019-05-23T03:16:59.031Z,67.66
2019-05-23T03:17:58.992Z,67.47
2019-05-23T03:18:58.982Z,68.16
2019-05-23T03:19:58.977Z,66.97
2019-05-23T03:20:58.960Z,67.57
2019-05-23T03:21:58.951Z,67.17
2019-05-23T03:22:58.940Z,67.36
2019-05-23T03:23:58.927Z,67.66
2019-05-23T03:24:58.916Z,67.36
2019-05-23T03:25:58.910Z,67.36
2019-05-23T03:26:58.897Z,67.27
2019-05-23T03:27:58.886Z,67.27
2019-05-23T03:28:58.871Z,67.36
2019-05-23T03:29:58.863Z,67.27
2019-05-23T03:31:25.299Z,67.07
2019-05-23T03:31:59.837Z,67.27
2019-05-23T03:32:58.836Z,67.27
2019-05-23T03:33:58.818Z,68.56
2019-05-23T03:34:58.807Z,67.17
2019-05-23T03:35:58.796Z,68.07
2019-05-23T03:36:58.787Z,67.47
2019-05-23T03:37:58.775Z,68.07
2019-05-23T03:38:58.767Z,68.07
2019-05-23T03:39:58.752Z,67.77
2019-05-23T03:40:58.740Z,67.17
2019-05-23T03:41:58.730Z,68.07
2019-05-23T03:42:58.717Z,68.37
2019-05-23T03:43:58.708Z,68.46
2019-05-23T03:44:58.697Z,68.26
2019-05-23T03:45:58.685Z,68.46
2019-05-23T03:46:58.674Z,68.16
2019-05-23T03:47:58.667Z,68.26
2019-05-23T03:48:58.656Z,68.56
2019-05-23T03:49:58.643Z,68.56
2019-05-23T03:50:58.631Z,68.46
2019-05-23T03:51:58.643Z,68.56
2019-05-23T03:52:58.607Z,68.56
2019-05-23T03:53:58.601Z,68.37
2019-05-23T03:54:58.589Z,68.76
2019-05-23T03:55:58.575Z,68.66
2019-05-23T03:56:58.566Z,68.56
2019-05-23T03:57:58.561Z,68.66
2019-05-23T03:58:58.549Z,68.76
2019-05-23T03:59:58.531Z,68.46
2019-05-23T04:00:58.527Z,68.26
2019-05-23T04:01:58.511Z,68.26
2019-05-23T04:02:58.502Z,68.56
2019-05-23T04:03:58.487Z,68.37
2019-05-23T04:04:58.478Z,68.37
2019-05-23T04:05:58.466Z,68.37
2019-05-23T04:06:58.459Z,68.37
2019-05-23T04:07:58.445Z,68.26
2019-05-23T04:08:58.433Z,68.26
2019-05-23T04:09:58.422Z,68.66
2019-05-23T04:10:58.412Z,68.16
2019-05-23T04:11:58.454Z,68.66
2019-05-23T04:12:58.389Z,68.46
2019-05-23T04:13:58.383Z,68.66
2019-05-23T04:14:58.369Z,68.66
2019-05-23T04:15:58.369Z,68.66
2019-05-23T04:16:58.344Z,68.56
2019-05-23T04:17:58.353Z,68.66
2019-05-23T04:18:58.328Z,68.33
2019-05-23T04:19:58.312Z,68.26
2019-05-23T04:20:58.305Z,68.66
2019-05-23T04:21:58.297Z,68.46
2019-05-23T04:22:58.279Z,68.16
2019-05-23T04:23:58.280Z,68.86
2019-05-23T04:25:01.828Z,68.56
2019-05-23T04:25:58.247Z,67.96
2019-05-23T04:26:58.237Z,67.36
2019-05-23T04:27:58.233Z,67.57
2019-05-23T04:28:58.217Z,66.87
2019-05-23T04:29:58.215Z,67.77
2019-05-23T04:30:58.192Z,67.17
2019-05-23T04:32:08.016Z,66.07
2019-05-23T04:32:59.170Z,66.67
2019-05-23T04:33:58.223Z,66.67
2019-05-23T04:34:58.148Z,66.67
2019-05-23T04:35:58.142Z,66.87
2019-05-23T04:36:58.142Z,65.67
2019-05-23T04:37:58.117Z,67.07
2019-05-23T04:38:58.120Z,67.07
2019-05-23T04:39:58.095Z,66.77
2019-05-23T04:40:58.088Z,66.07
2019-05-23T04:41:58.074Z,65.77
2019-05-23T04:42:58.065Z,66.67
2019-05-23T04:43:58.051Z,66.17
2019-05-23T04:44:58.046Z,66.27
2019-05-23T04:45:58.029Z,66.67
2019-05-23T04:46:58.023Z,67.66
2019-05-23T04:47:58.007Z,66.17
2019-05-23T04:48:57.996Z,67.47
2019-05-23T04:49:57.986Z,67.57
2019-05-23T04:51:00.151Z,67.36
2019-05-23T04:51:57.967Z,68.07
2019-05-23T04:52:57.952Z,67.96
2019-05-23T04:53:57.940Z,67.96
2019-05-23T04:54:57.931Z,68.07
2019-05-23T04:55:57.924Z,68.46
2019-05-23T04:56:57.908Z,68.56
2019-05-23T04:57:57.898Z,68.46
2019-05-23T04:58:57.886Z,68.16
2019-05-23T04:59:57.874Z,68.16
2019-05-23T05:00:57.866Z,68.26
2019-05-23T05:01:57.855Z,68.46
2019-05-23T05:02:57.845Z,68.26
2019-05-23T05:03:57.850Z,68.16
2019-05-23T05:04:57.820Z,68.26
2019-05-23T05:05:57.812Z,68.16
2019-05-23T05:06:57.814Z,68.56
2019-05-23T05:07:57.795Z,67.07
2019-05-23T05:08:57.779Z,65.67
2019-05-23T05:09:57.769Z,63.58
2019-05-23T05:10:57.756Z,63.28
2019-05-23T05:11:57.744Z,63.88
2019-05-23T05:12:57.732Z,64.18
2019-05-23T05:13:57.721Z,63.38
2019-05-23T05:14:57.718Z,63.78
2019-05-23T05:15:57.701Z,63.88
2019-05-23T05:16:57.690Z,63.38
2019-05-23T05:17:57.688Z,64.48
2019-05-23T05:18:57.666Z,63.98
2019-05-23T05:19:57.655Z,64.37
2019-05-23T05:20:57.644Z,64.87
2019-05-23T05:21:57.636Z,64.48
2019-05-23T05:22:57.623Z,64.67
2019-05-23T05:23:57.615Z,64.78
2019-05-23T05:24:57.606Z,65.17
2019-05-23T05:25:57.591Z,64.87
2019-05-23T05:26:57.581Z,64.87
2019-05-23T05:27:57.574Z,64.67
2019-05-23T05:28:57.564Z,64.78
2019-05-23T05:29:57.548Z,64.97
2019-05-23T05:30:57.537Z,65.27
2019-05-23T05:31:57.529Z,64.48
2019-05-23T05:32:57.523Z,64.37
2019-05-23T05:33:57.512Z,64.87
2019-05-23T05:34:57.494Z,64.28
2019-05-23T05:35:57.485Z,64.37
2019-05-23T05:36:57.473Z,64.78
2019-05-23T05:37:57.463Z,64.48
2019-05-23T05:38:57.457Z,64.37
2019-05-23T05:39:57.439Z,64.78
2019-05-23T05:40:57.434Z,64.78
2019-05-23T05:41:57.442Z,64.58
2019-05-23T05:42:57.412Z,64.28
2019-05-23T05:43:57.407Z,63.95
2019-05-23T05:44:57.481Z,64.34
2019-05-23T05:45:57.377Z,63.98
2019-05-23T05:46:57.366Z,64.04
2019-05-23T05:47:57.355Z,64.15
2019-05-23T05:48:57.381Z,64.15
2019-05-23T05:49:57.338Z,63.85
2019-05-23T05:50:57.322Z,63.55
2019-05-23T05:51:57.314Z,64.15
2019-05-23T05:52:57.301Z,63.75
2019-05-23T05:53:57.294Z,63.95
2019-05-23T05:55:00.726Z,63.45
2019-05-23T05:55:57.282Z,63.75
2019-05-23T05:56:57.808Z,63.75
2019-05-23T05:57:57.246Z,63.45
2019-05-23T05:58:57.241Z,63.35
2019-05-23T05:59:57.228Z,63.32
2019-05-23T06:00:57.217Z,63.32
2019-05-23T06:01:57.203Z,63.82
2019-05-23T06:03:04.073Z,63.75
2019-05-23T06:03:58.197Z,63.82
2019-05-23T06:04:57.302Z,63.32
2019-05-23T06:05:57.157Z,60.76
2019-05-23T06:06:57.145Z,57.17
2019-05-23T06:07:57.135Z,56.87
2019-05-23T06:08:57.175Z,53.19
2019-05-23T06:09:57.113Z,53.52
2019-05-23T06:10:57.211Z,55.11
2019-05-23T06:11:57.093Z,55.91
2019-05-23T06:12:57.083Z,54.34
2019-05-23T06:13:57.070Z,53.84
2019-05-23T06:14:57.063Z,58.83
2019-05-23T06:15:57.239Z,54.66
2019-05-23T06:16:57.037Z,60.15
2019-05-23T06:17:57.027Z,56.16
2019-05-23T06:18:57.061Z,54.86
2019-05-23T06:19:57.003Z,56.36
2019-05-23T06:20:56.999Z,56.46
2019-05-23T06:21:57.001Z,56.66
2019-05-23T06:22:56.983Z,56.16
2019-05-23T06:23:56.959Z,56.85
2019-05-23T06:24:58.090Z,55.96
2019-05-23T06:25:56.957Z,55.96
2019-05-23T06:26:56.928Z,53.06
2019-05-23T06:27:56.918Z,51.97
2019-05-23T06:28:56.909Z,52.07
2019-05-23T06:29:56.901Z,51.97
2019-05-23T06:30:56.889Z,52.97
2019-05-23T06:31:56.879Z,52.76
2019-05-23T06:32:56.864Z,58.15
2019-05-23T06:33:56.854Z,56.66
2019-05-23T06:34:56.844Z,58.36
2019-05-23T06:35:56.835Z,58.72
2019-05-23T06:36:56.834Z,56.23
2019-05-23T06:37:56.834Z,57.82
2019-05-23T06:38:56.806Z,55.63
2019-05-23T06:39:56.793Z,55.63
2019-05-23T06:40:56.780Z,53.61
2019-05-23T06:41:56.770Z,55.41
2019-05-23T06:42:56.758Z,50.52
2019-05-23T06:43:56.746Z,52.51
2019-05-23T06:44:56.740Z,45.72
2019-05-23T06:45:56.744Z,48.03
2019-05-23T06:46:56.715Z,49.43
2019-05-23T06:47:56.776Z,49.03
2019-05-23T06:48:56.695Z,48.03
2019-05-23T06:49:56.683Z,48.03
2019-05-23T06:50:56.674Z,46.24
2019-05-23T06:51:56.661Z,44.84
2019-05-23T06:52:56.654Z,47.96
2019-05-23T06:53:56.640Z,47.45
2019-05-23T06:54:59.690Z,45.56
2019-05-23T06:55:56.689Z,48.18
2019-05-23T06:56:56.607Z,49.27
2019-05-23T06:57:56.599Z,49.68
2019-05-23T06:58:56.590Z,48.28
2019-05-23T06:59:56.581Z,50.67
2019-05-23T07:00:56.569Z,51.07
2019-05-23T07:01:56.556Z,47.38
2019-05-23T07:02:56.584Z,49.77
2019-05-23T07:03:56.600Z,48.28
2019-05-23T07:04:56.523Z,47.58
2019-05-23T07:05:56.518Z,47.28
2019-05-23T07:06:56.504Z,50.27
2019-05-23T07:07:56.497Z,48.25
2019-05-23T07:08:56.484Z,49.55
2019-05-23T07:09:56.471Z,48.08
2019-05-23T07:10:56.474Z,47.45
2019-05-23T07:11:56.450Z,46.16
2019-05-23T07:12:56.440Z,47.56
2019-05-23T07:13:56.429Z,45.96
2019-05-23T07:14:56.420Z,46.86
2019-05-23T07:15:56.407Z,47.86
2019-05-23T07:16:56.399Z,45.56
2019-05-23T07:17:56.387Z,49.25
2019-05-23T07:18:56.377Z,51.95
2019-05-23T07:19:56.373Z,45.36
2019-05-23T07:20:56.356Z,44.57
2019-05-23T07:21:56.346Z,45.56
2019-05-23T07:22:56.340Z,48.05
2019-05-23T07:23:56.325Z,48.46
2019-05-23T07:24:58.694Z,48.05
2019-05-23T07:25:56.302Z,48.65
2019-05-23T07:26:56.292Z,45.06
2019-05-23T07:27:56.282Z,44.46
2019-05-23T07:28:56.271Z,44.76
2019-05-23T07:29:56.467Z,45.76
2019-05-23T07:30:56.275Z,44.87
2019-05-23T07:31:56.241Z,45.18
2019-05-23T07:32:56.249Z,46.06
2019-05-23T07:34:01.854Z,49.05
2019-05-23T07:34:57.205Z,45.36
2019-05-23T07:35:56.313Z,44.76
2019-05-23T07:36:56.190Z,48.35
2019-05-23T07:37:56.176Z,47.56
2019-05-23T07:38:56.164Z,43.47
2019-05-23T07:39:56.164Z,44.87
2019-05-23T07:40:56.146Z,46.06
2019-05-23T07:41:56.179Z,46.96
2019-05-23T07:42:56.123Z,45.96
2019-05-23T07:43:56.113Z,46.36
2019-05-23T07:44:56.103Z,43.87
2019-05-23T07:45:56.098Z,45.44
2019-05-23T07:46:56.085Z,44.57
2019-05-23T07:47:56.139Z,43.47
2019-05-23T07:48:56.058Z,44.87
2019-05-23T07:49:56.048Z,45.86
2019-05-23T07:50:56.049Z,44.27
2019-05-23T07:51:56.033Z,44.67
2019-05-23T07:52:56.082Z,44.96
2019-05-23T07:53:56.021Z,43.67
2019-05-23T07:54:56.012Z,43.37
2019-05-23T07:55:55.992Z,43.07
2019-05-23T07:56:55.974Z,44.87
2019-05-23T07:57:56.042Z,46.76
2019-05-23T07:58:55.953Z,46.26
2019-05-23T07:59:55.944Z,46.76
2019-05-23T08:00:55.935Z,44.87
2019-05-23T08:01:55.922Z,44.74
2019-05-23T08:02:55.914Z,46.24
2019-05-23T08:03:55.900Z,44.24
2019-05-23T08:04:55.891Z,46.24
2019-05-23T08:05:55.918Z,46.04
2019-05-23T08:06:55.885Z,42.63
2019-05-23T08:07:55.870Z,45.02
2019-05-23T08:08:55.851Z,44.12
2019-05-23T08:09:55.837Z,42.45
2019-05-23T08:10:55.826Z,43.75
2019-05-23T08:11:55.819Z,43.35
2019-05-23T08:12:55.809Z,44.54
2019-05-23T08:13:55.795Z,41.75
2019-05-23T08:14:55.785Z,43.25
2019-05-23T08:15:55.775Z,43.35
2019-05-23T08:16:55.769Z,44.84
2019-05-23T08:17:55.756Z,45.94
2019-05-23T08:18:55.742Z,45.74
2019-05-23T08:19:55.737Z,42.75
2019-05-23T08:20:55.720Z,45.04
2019-05-23T08:21:55.717Z,42.95
2019-05-23T08:22:55.702Z,45.14
2019-05-23T08:23:55.689Z,43.07
2019-05-23T08:24:55.682Z,43.75
2019-05-23T08:25:55.668Z,45.96
2019-05-23T08:26:55.658Z,43.55
2019-05-23T08:27:55.647Z,44.94
2019-05-23T08:29:22.292Z,45.34
2019-05-23T08:29:56.625Z,45.64
2019-05-23T08:30:55.642Z,43.05
2019-05-23T08:31:55.606Z,43.35
2019-05-23T08:32:55.596Z,42.95
2019-05-23T08:33:56.555Z,42.75
2019-05-23T08:34:55.574Z,41.96
2019-05-23T08:35:55.564Z,42.77
2019-05-23T08:36:55.552Z,43.17
2019-05-23T08:37:55.542Z,43.37
2019-05-23T08:38:55.531Z,44.96
2019-05-23T08:39:55.520Z,42.97
2019-05-23T08:40:55.788Z,42.07
2019-05-23T08:41:55.513Z,41.77
2019-05-23T08:42:55.492Z,43.07
2019-05-23T08:43:55.481Z,42.07
2019-05-23T08:44:55.468Z,42.57
2019-05-23T08:45:55.459Z,42.27
2019-05-23T08:46:55.448Z,42.27
2019-05-23T08:47:55.753Z,42.77
2019-05-23T08:48:55.874Z,44.57
2019-05-23T08:49:55.415Z,42.37
2019-05-23T08:50:55.421Z,42.07
2019-05-23T08:51:55.653Z,42.18
2019-05-23T08:52:55.409Z,42.07
2019-05-23T08:53:55.374Z,42.97
2019-05-23T08:54:55.370Z,41.77
2019-05-23T08:55:55.392Z,41.97
2019-05-23T08:56:55.341Z,44.96
2019-05-23T08:57:55.337Z,45.24
2019-05-23T08:58:55.319Z,44.65
2019-05-23T08:59:55.331Z,43.35
2019-05-23T09:00:55.326Z,41.85
2019-05-23T09:01:55.287Z,43.35
2019-05-23T09:02:58.557Z,42.85
2019-05-23T09:03:55.267Z,44.84
2019-05-23T09:05:04.584Z,44.54
2019-05-23T09:05:56.242Z,45.32
2019-05-23T09:06:55.236Z,45.62
2019-05-23T09:07:55.225Z,43.13
2019-05-23T09:08:55.211Z,44.72
2019-05-23T09:09:55.234Z,43.03
2019-05-23T09:10:55.195Z,44.53
2019-05-23T09:11:55.222Z,42.53
2019-05-23T09:12:55.172Z,44.70
2019-05-23T09:13:55.167Z,43.23
2019-05-23T09:14:55.354Z,44.40
2019-05-23T09:15:55.151Z,45.90
2019-05-23T09:16:55.159Z,42.31
2019-05-23T09:17:55.121Z,41.52
2019-05-23T09:18:55.107Z,41.31
2019-05-23T09:19:55.097Z,42.93
2019-05-23T09:20:55.085Z,45.00
2019-05-23T09:21:58.036Z,45.50
2019-05-23T09:22:55.071Z,45.60
2019-05-23T09:23:55.059Z,42.81
2019-05-23T09:24:55.044Z,42.51
2019-05-23T09:25:55.031Z,42.01
2019-05-23T09:26:55.023Z,41.82
2019-05-23T09:27:55.014Z,41.71
2019-05-23T09:28:55.000Z,42.73
2019-05-23T09:29:54.990Z,42.13
2019-05-23T09:30:54.987Z,42.41
2019-05-23T09:31:54.971Z,40.34
2019-05-23T09:32:54.958Z,40.54
2019-05-23T09:33:54.946Z,40.54
2019-05-23T09:34:54.937Z,41.44
2019-05-23T09:35:54.932Z,41.24
2019-05-23T09:36:54.921Z,40.76
2019-05-23T09:37:54.906Z,41.36
2019-05-23T09:38:55.027Z,41.06
2019-05-23T09:39:54.886Z,40.66
2019-05-23T09:40:54.934Z,40.95
2019-05-23T09:41:54.868Z,40.56
2019-05-23T09:42:54.855Z,40.26
2019-05-23T09:43:54.841Z,40.38
2019-05-23T09:44:54.830Z,40.66
2019-05-23T09:45:54.819Z,39.68
2019-05-23T09:46:54.811Z,41.88
2019-05-23T09:47:54.802Z,42.57
2019-05-23T09:48:54.789Z,42.87
2019-05-23T09:49:54.784Z,40.48
2019-05-23T09:50:54.771Z,39.88
2019-05-23T09:51:58.897Z,40.68
2019-05-23T09:52:55.753Z,40.48
2019-05-23T09:53:54.735Z,41.58
2019-05-23T09:54:54.725Z,39.28
2019-05-23T09:55:55.909Z,40.08
2019-05-23T09:56:54.707Z,40.38
2019-05-23T09:57:54.696Z,40.18
2019-05-23T09:58:54.688Z,40.58
2019-05-23T09:59:57.031Z,42.77
2019-05-23T10:00:54.665Z,41.88
2019-05-23T10:01:54.684Z,39.28
2019-05-23T10:02:54.644Z,40.58
2019-05-23T10:03:54.675Z,41.67
2019-05-23T10:04:54.624Z,40.88
2019-05-23T10:05:54.609Z,39.28
2019-05-23T10:06:54.599Z,39.58
2019-05-23T10:07:54.587Z,41.47
2019-05-23T10:08:54.584Z,40.58
2019-05-23T10:09:54.575Z,40.48
2019-05-23T10:10:54.560Z,40.38
2019-05-23T10:11:54.546Z,39.98
2019-05-23T10:12:54.553Z,39.38
2019-05-23T10:13:54.524Z,39.80
2019-05-23T10:14:54.513Z,38.10
2019-05-23T10:15:54.503Z,39.00
2019-05-23T10:16:54.493Z,40.89
2019-05-23T10:17:54.485Z,41.30
2019-05-23T10:18:54.475Z,40.20
2019-05-23T10:19:54.459Z,40.40
2019-05-23T10:20:54.449Z,39.40
2019-05-23T10:21:54.441Z,40.40
2019-05-23T10:22:54.429Z,39.10
2019-05-23T10:23:54.418Z,40.10
2019-05-23T10:24:54.409Z,40.81
2019-05-23T10:25:54.396Z,40.01
2019-05-23T10:26:54.408Z,42.19
2019-05-23T10:27:55.880Z,42.79
2019-05-23T10:28:54.373Z,42.61
2019-05-23T10:29:54.362Z,40.01
2019-05-23T10:30:54.347Z,40.50
2019-05-23T10:31:54.331Z,40.42
2019-05-23T10:32:54.322Z,40.62
2019-05-23T10:33:54.311Z,40.40
2019-05-23T10:34:54.300Z,40.42
2019-05-23T10:36:00.345Z,42.51
2019-05-23T10:36:55.279Z,42.21
2019-05-23T10:37:54.270Z,41.22
2019-05-23T10:38:54.261Z,40.10
2019-05-23T10:39:54.248Z,39.70
2019-05-23T10:40:54.239Z,41.31
2019-05-23T10:41:54.224Z,41.02
2019-05-23T10:42:54.239Z,41.82
2019-05-23T10:43:54.226Z,40.12
2019-05-23T10:44:54.193Z,40.22
2019-05-23T10:45:54.182Z,40.62
2019-05-23T10:46:54.175Z,39.32
2019-05-23T10:47:54.164Z,40.01
2019-05-23T10:48:54.149Z,40.62
2019-05-23T10:49:54.182Z,41.41
2019-05-23T10:50:54.128Z,40.52
2019-05-23T10:51:54.120Z,41.52
2019-05-23T10:52:54.117Z,40.22
2019-05-23T10:53:54.099Z,42.21
2019-05-23T10:54:54.084Z,40.73
2019-05-23T10:55:54.097Z,42.32
2019-05-23T10:56:54.062Z,40.42
2019-05-23T10:57:54.068Z,41.63
2019-05-23T10:58:54.055Z,40.62
2019-05-23T10:59:54.031Z,40.62
2019-05-23T11:00:54.021Z,40.83
2019-05-23T11:01:54.011Z,40.42
2019-05-23T11:02:53.997Z,42.73
2019-05-23T11:03:54.058Z,40.83
2019-05-23T11:04:53.976Z,40.44
2019-05-23T11:05:53.969Z,40.94
2019-05-23T11:06:53.957Z,41.44
2019-05-23T11:07:53.944Z,42.33
2019-05-23T11:08:53.940Z,42.51
2019-05-23T11:09:53.942Z,41.74
2019-05-23T11:10:53.921Z,42.24
2019-05-23T11:11:53.899Z,42.81
2019-05-23T11:12:53.888Z,40.81
2019-05-23T11:13:53.877Z,39.92
2019-05-23T11:14:53.873Z,41.11
2019-05-23T11:15:53.863Z,40.42
2019-05-23T11:16:53.847Z,41.11
2019-05-23T11:17:54.190Z,41.41
2019-05-23T11:18:53.835Z,40.72
2019-05-23T11:19:53.832Z,40.64
2019-05-23T11:20:53.807Z,39.94
2019-05-23T11:21:53.793Z,41.02
2019-05-23T11:22:53.784Z,41.24
2019-05-23T11:23:53.798Z,40.44
2019-05-23T11:24:53.764Z,40.14
2019-05-23T11:25:53.750Z,41.53
2019-05-23T11:26:53.742Z,40.44
2019-05-23T11:27:53.732Z,41.24
2019-05-23T11:28:53.719Z,41.63
2019-05-23T11:29:53.708Z,42.24
2019-05-23T11:30:53.695Z,40.64
2019-05-23T11:31:53.690Z,40.44
2019-05-23T11:32:53.679Z,40.44
2019-05-23T11:33:53.667Z,40.04
2019-05-23T11:34:53.655Z,39.86
2019-05-23T11:35:53.643Z,41.05
2019-05-23T11:36:53.634Z,40.56
2019-05-23T11:37:53.633Z,40.45
2019-05-23T11:38:53.615Z,42.46
2019-05-23T11:39:53.613Z,41.36
2019-05-23T11:40:53.598Z,43.05
2019-05-23T11:41:53.580Z,41.83
2019-05-23T11:42:53.569Z,41.96
2019-05-23T11:43:53.579Z,40.36
2019-05-23T11:44:53.561Z,40.14
2019-05-23T11:45:53.535Z,40.23
2019-05-23T11:46:53.526Z,40.25
2019-05-23T11:47:53.513Z,42.05
2019-05-23T11:48:53.503Z,42.24
2019-05-23T11:49:53.491Z,42.65
2019-05-23T11:50:53.482Z,41.96
2019-05-23T11:51:53.478Z,41.63
2019-05-23T11:52:55.925Z,42.05
2019-05-23T11:54:06.600Z,42.55
2019-05-23T11:54:54.443Z,42.35
2019-05-23T11:55:54.626Z,41.75
2019-05-23T11:56:53.425Z,41.46
2019-05-23T11:57:53.419Z,41.85
2019-05-23T11:58:53.400Z,42.15
2019-05-23T11:59:53.452Z,42.83
2019-05-23T12:00:53.580Z,42.46
2019-05-23T12:01:53.382Z,41.46
2019-05-23T12:02:53.358Z,40.56
2019-05-23T12:03:53.340Z,40.86
2019-05-23T12:04:53.338Z,41.55
2019-05-23T12:05:53.348Z,41.24
2019-05-23T12:06:55.769Z,41.53
2019-05-23T12:07:53.303Z,40.45
2019-05-23T12:08:53.290Z,40.66
2019-05-23T12:09:53.274Z,42.05
2019-05-23T12:10:53.267Z,42.55
2019-05-23T12:11:53.253Z,42.25
2019-05-23T12:12:53.247Z,42.46
2019-05-23T12:13:53.231Z,41.85
2019-05-23T12:14:53.221Z,41.66
2019-05-23T12:15:53.214Z,41.36
2019-05-23T12:16:53.218Z,42.03
2019-05-23T12:17:53.192Z,42.13
2019-05-23T12:18:53.178Z,40.73
2019-05-23T12:19:53.186Z,42.03
2019-05-23T12:20:53.155Z,42.33
2019-05-23T12:21:53.146Z,42.73
2019-05-23T12:22:53.170Z,42.33
2019-05-23T12:23:53.121Z,42.03
2019-05-23T12:24:53.127Z,42.33
2019-05-23T12:25:53.101Z,40.44
2019-05-23T12:26:53.095Z,41.93
2019-05-23T12:27:53.080Z,41.33
2019-05-23T12:28:53.070Z,41.44
2019-05-23T12:29:53.064Z,41.44
2019-05-23T12:30:53.047Z,41.74
2019-05-23T12:31:53.035Z,41.63
2019-05-23T12:32:53.026Z,41.33
2019-05-23T12:33:53.015Z,41.63
2019-05-23T12:35:09.435Z,41.83
2019-05-23T12:35:53.990Z,42.13
2019-05-23T12:36:52.984Z,41.53
2019-05-23T12:37:52.970Z,39.94
2019-05-23T12:38:52.971Z,41.74
2019-05-23T12:39:52.955Z,41.63
2019-05-23T12:40:52.938Z,41.36
2019-05-23T12:41:52.931Z,41.53
2019-05-23T12:42:52.939Z,42.55
2019-05-23T12:43:52.930Z,41.75
2019-05-23T12:44:52.895Z,41.93
2019-05-23T12:45:52.883Z,41.83
2019-05-23T12:46:52.873Z,40.53
2019-05-23T12:47:52.873Z,41.74
2019-05-23T12:48:52.850Z,42.13
2019-05-23T12:49:52.845Z,41.93
2019-05-23T12:50:54.228Z,40.14
2019-05-23T12:51:52.819Z,39.94